createdAt,value
2019-01-14T00:00:39.952Z,6.30
2019-01-14T00:01:39.940Z,6.30
2019-01-14T00:02:39.953Z,5.90
2019-01-14T00:03:39.918Z,5.30
2019-01-14T00:04:39.911Z,5.60
2019-01-14T00:05:39.897Z,6.30
2019-01-14T00:06:39.890Z,5.50
2019-01-14T00:07:39.893Z,5.60
2019-01-14T00:08:39.864Z,6.50
2019-01-14T00:09:39.853Z,5.50
2019-01-14T00:10:39.843Z,5.10
2019-01-14T00:11:39.830Z,4.60
2019-01-14T00:12:39.842Z,5.20
2019-01-14T00:13:39.812Z,5.60
2019-01-14T00:14:39.799Z,5.40
2019-01-14T00:15:39.788Z,5.70
2019-01-14T00:16:39.776Z,5.70
2019-01-14T00:17:39.789Z,6.70
2019-01-14T00:18:39.753Z,5.60
2019-01-14T00:19:39.748Z,6.40
2019-01-14T00:20:39.732Z,6.00
2019-01-14T00:21:39.722Z,5.70
2019-01-14T00:22:39.713Z,6.40
2019-01-14T00:23:40.172Z,5.60
2019-01-14T00:24:39.689Z,5.50
2019-01-14T00:25:39.678Z,5.90
2019-01-14T00:26:39.668Z,6.10
2019-01-14T00:27:39.675Z,6.40
2019-01-14T00:28:39.647Z,5.50
2019-01-14T00:29:39.634Z,5.90
2019-01-14T00:30:39.622Z,5.90
2019-01-14T00:31:39.615Z,5.90
2019-01-14T00:32:39.628Z,5.40
2019-01-14T00:33:39.591Z,5.20
2019-01-14T00:34:39.582Z,5.50
2019-01-14T00:35:39.568Z,6.00
2019-01-14T00:36:39.561Z,6.00
2019-01-14T00:37:39.548Z,6.60
2019-01-14T00:38:39.557Z,5.60
2019-01-14T00:39:39.526Z,5.40
2019-01-14T00:40:39.513Z,5.50
2019-01-14T00:41:39.502Z,6.50
2019-01-14T00:42:39.490Z,6.10
2019-01-14T00:43:40.176Z,4.80
2019-01-14T00:44:39.470Z,5.60
2019-01-14T00:45:39.458Z,5.40
2019-01-14T00:46:39.448Z,4.90
2019-01-14T00:47:39.435Z,6.50
2019-01-14T00:48:39.447Z,6.10
2019-01-14T00:49:39.419Z,5.50
2019-01-14T00:50:39.403Z,5.70
2019-01-14T00:51:39.392Z,6.00
2019-01-14T00:52:39.386Z,6.30
2019-01-14T00:53:40.175Z,5.50
2019-01-14T00:54:39.359Z,5.80
2019-01-14T00:55:39.356Z,5.30
2019-01-14T00:56:39.357Z,5.20
2019-01-14T00:57:39.328Z,5.30
2019-01-14T00:58:39.317Z,4.80
2019-01-14T00:59:39.325Z,5.10
2019-01-14T01:00:39.296Z,5.30
2019-01-14T01:01:39.283Z,5.60
2019-01-14T01:02:39.273Z,5.10
2019-01-14T01:03:39.265Z,5.30
2019-01-14T01:04:39.271Z,4.70
2019-01-14T01:05:39.239Z,5.00
2019-01-14T01:06:39.227Z,5.30
2019-01-14T01:07:39.217Z,5.40
2019-01-14T01:08:39.206Z,5.10
2019-01-14T01:09:39.215Z,5.00
2019-01-14T01:10:39.183Z,4.80
2019-01-14T01:11:39.174Z,5.60
2019-01-14T01:12:39.162Z,5.30
2019-01-14T01:13:39.150Z,2.40
2019-01-14T01:14:40.678Z,2.30
2019-01-14T01:15:39.133Z,2.80
2019-01-14T01:16:39.118Z,1.60
2019-01-14T01:17:39.107Z,1.60
2019-01-14T01:18:39.097Z,1.50
2019-01-14T01:19:39.104Z,1.70
2019-01-14T01:20:39.074Z,1.90
2019-01-14T01:21:39.067Z,2.00
2019-01-14T01:22:39.053Z,3.40
2019-01-14T01:23:39.041Z,3.10
2019-01-14T01:24:39.054Z,3.50
2019-01-14T01:25:39.021Z,3.80
2019-01-14T01:26:39.009Z,4.00
2019-01-14T01:27:38.998Z,3.80
2019-01-14T01:28:38.986Z,4.00
2019-01-14T01:29:39.001Z,3.90
2019-01-14T01:30:38.963Z,3.90
2019-01-14T01:31:38.958Z,4.10
2019-01-14T01:32:38.945Z,4.10
2019-01-14T01:33:38.933Z,3.80
2019-01-14T01:34:38.942Z,4.20
2019-01-14T01:35:38.912Z,3.50
2019-01-14T01:36:38.898Z,4.30
2019-01-14T01:37:38.889Z,4.50
2019-01-14T01:38:38.878Z,5.20
2019-01-14T01:39:38.885Z,4.80
2019-01-14T01:40:38.854Z,5.50
2019-01-14T01:41:38.844Z,5.80
2019-01-14T01:42:38.834Z,5.20
2019-01-14T01:43:38.822Z,4.90
2019-01-14T01:44:38.836Z,4.90
2019-01-14T01:45:38.802Z,4.90
2019-01-14T01:46:38.788Z,4.80
2019-01-14T01:47:38.782Z,5.30
2019-01-14T01:48:38.768Z,4.40
2019-01-14T01:49:38.782Z,4.90
2019-01-14T01:50:38.745Z,5.10
2019-01-14T01:51:38.735Z,5.70
2019-01-14T01:52:38.723Z,4.20
2019-01-14T01:53:38.713Z,5.30
2019-01-14T01:54:38.704Z,5.30
2019-01-14T01:55:38.714Z,5.70
2019-01-14T01:56:38.682Z,5.20
2019-01-14T01:57:38.671Z,5.20
2019-01-14T01:58:38.663Z,5.50
2019-01-14T01:59:38.647Z,5.60
2019-01-14T02:00:38.658Z,5.70
2019-01-14T02:01:38.627Z,6.20
2019-01-14T02:02:38.615Z,5.60
2019-01-14T02:03:38.603Z,4.90
2019-01-14T02:04:38.592Z,6.30
2019-01-14T02:05:39.220Z,5.10
2019-01-14T02:06:39.292Z,5.50
2019-01-14T02:07:38.561Z,5.80
2019-01-14T02:08:38.549Z,5.70
2019-01-14T02:09:38.539Z,6.30
2019-01-14T02:10:38.527Z,6.50
2019-01-14T02:11:38.536Z,5.90
2019-01-14T02:12:38.508Z,6.90
2019-01-14T02:13:38.496Z,6.00
2019-01-14T02:14:38.483Z,5.20
2019-01-14T02:15:38.497Z,5.80
2019-01-14T02:16:38.463Z,6.00
2019-01-14T02:17:38.452Z,5.80
2019-01-14T02:18:38.439Z,5.80
2019-01-14T02:19:38.430Z,5.80
2019-01-14T02:20:38.418Z,5.70
2019-01-14T02:21:38.426Z,6.20
2019-01-14T02:22:38.397Z,6.20
2019-01-14T02:23:38.385Z,5.70
2019-01-14T02:24:38.373Z,6.20
2019-01-14T02:25:38.362Z,6.10
2019-01-14T02:26:38.375Z,5.20
2019-01-14T02:27:38.342Z,6.10
2019-01-14T02:28:38.330Z,6.10
2019-01-14T02:29:38.318Z,5.10
2019-01-14T02:30:38.313Z,5.70
2019-01-14T02:31:38.317Z,6.10
2019-01-14T02:32:38.293Z,6.00
2019-01-14T02:33:38.276Z,5.90
2019-01-14T02:34:38.265Z,6.00
2019-01-14T02:35:38.254Z,5.50
2019-01-14T02:36:38.274Z,5.40
2019-01-14T02:37:38.231Z,5.90
2019-01-14T02:38:38.220Z,5.50
2019-01-14T02:39:38.211Z,4.90
2019-01-14T02:40:38.198Z,5.50
2019-01-14T02:41:38.186Z,5.80
2019-01-14T02:42:38.201Z,6.50
2019-01-14T02:43:38.166Z,6.30
2019-01-14T02:44:38.155Z,5.50
2019-01-14T02:45:38.148Z,5.10
2019-01-14T02:46:38.137Z,5.30
2019-01-14T02:47:38.146Z,5.80
2019-01-14T02:48:38.112Z,5.00
2019-01-14T02:49:38.102Z,5.00
2019-01-14T02:50:38.088Z,4.60
2019-01-14T02:51:38.079Z,5.50
2019-01-14T02:52:39.664Z,5.10
2019-01-14T02:53:38.055Z,5.00
2019-01-14T02:54:38.043Z,5.30
2019-01-14T02:55:38.035Z,5.30
2019-01-14T02:56:38.026Z,5.10
2019-01-14T02:57:38.037Z,5.70
2019-01-14T02:58:38.000Z,4.90
2019-01-14T02:59:37.991Z,4.80
2019-01-14T03:00:37.983Z,5.10
2019-01-14T03:01:37.968Z,5.30
2019-01-14T03:02:37.960Z,4.70
2019-01-14T03:03:37.966Z,5.00
2019-01-14T03:04:37.936Z,5.00
2019-01-14T03:05:37.925Z,4.90
2019-01-14T03:06:37.913Z,4.60
2019-01-14T03:07:37.904Z,4.00
2019-01-14T03:08:37.922Z,4.50
2019-01-14T03:09:37.882Z,3.80
2019-01-14T03:10:37.872Z,4.10
2019-01-14T03:11:37.859Z,4.60
2019-01-14T03:12:37.848Z,4.10
2019-01-14T03:13:37.857Z,4.30
2019-01-14T03:14:37.825Z,4.80
2019-01-14T03:15:37.814Z,4.10
2019-01-14T03:16:37.805Z,4.50
2019-01-14T03:17:37.799Z,4.10
2019-01-14T03:18:37.801Z,5.00
2019-01-14T03:19:37.771Z,5.10
2019-01-14T03:20:37.762Z,4.60
2019-01-14T03:21:37.759Z,4.40
2019-01-14T03:22:37.739Z,4.30
2019-01-14T03:23:37.752Z,4.60
2019-01-14T03:24:37.716Z,4.80
2019-01-14T03:25:37.708Z,5.10
2019-01-14T03:26:37.696Z,5.30
2019-01-14T03:27:37.686Z,5.60
2019-01-14T03:28:37.677Z,4.60
2019-01-14T03:29:37.684Z,5.00
2019-01-14T03:30:37.655Z,5.10
2019-01-14T03:31:37.641Z,5.70
2019-01-14T03:32:37.637Z,6.00
2019-01-14T03:33:37.637Z,5.30
2019-01-14T03:34:37.607Z,5.60
2019-01-14T03:35:37.595Z,6.10
2019-01-14T03:36:37.587Z,5.10
2019-01-14T03:37:37.574Z,5.40
2019-01-14T03:38:37.603Z,5.70
2019-01-14T03:39:37.554Z,5.60
2019-01-14T03:40:37.541Z,5.90
2019-01-14T03:41:37.531Z,6.40
2019-01-14T03:42:37.518Z,5.70
2019-01-14T03:43:37.507Z,6.20
2019-01-14T03:44:38.202Z,6.20
2019-01-14T03:45:37.484Z,6.60
2019-01-14T03:46:37.480Z,6.60
2019-01-14T03:47:37.462Z,8.00
2019-01-14T03:48:37.495Z,6.30
2019-01-14T03:49:37.453Z,6.80
2019-01-14T03:50:37.432Z,6.50
2019-01-14T03:51:37.423Z,6.70
2019-01-14T03:52:37.414Z,6.00
2019-01-14T03:53:37.399Z,6.10
2019-01-14T03:54:37.411Z,6.70
2019-01-14T03:55:37.375Z,7.40
2019-01-14T03:56:37.366Z,6.70
2019-01-14T03:57:37.355Z,7.40
2019-01-14T03:58:37.345Z,6.60
2019-01-14T03:59:37.354Z,6.90
2019-01-14T04:00:37.321Z,6.70
2019-01-14T04:01:37.311Z,6.90
2019-01-14T04:02:37.305Z,6.60
2019-01-14T04:03:37.290Z,7.80
2019-01-14T04:04:38.205Z,7.10
2019-01-14T04:05:37.266Z,6.60
2019-01-14T04:06:37.257Z,6.60
2019-01-14T04:07:37.245Z,6.40
2019-01-14T04:08:37.238Z,7.00
2019-01-14T04:09:37.225Z,6.40
2019-01-14T04:10:37.231Z,6.30
2019-01-14T04:11:37.201Z,5.90
2019-01-14T04:12:37.190Z,6.20
2019-01-14T04:13:37.182Z,6.40
2019-01-14T04:14:37.169Z,6.70
2019-01-14T04:15:37.188Z,6.90
2019-01-14T04:16:37.146Z,6.10
2019-01-14T04:17:37.134Z,6.00
2019-01-14T04:18:37.127Z,6.40
2019-01-14T04:19:37.116Z,6.30
2019-01-14T04:20:37.145Z,6.50
2019-01-14T04:21:37.090Z,7.10
2019-01-14T04:22:37.080Z,6.50
2019-01-14T04:23:37.069Z,5.90
2019-01-14T04:24:37.061Z,6.20
2019-01-14T04:25:37.047Z,5.80
2019-01-14T04:26:37.061Z,5.80
2019-01-14T04:27:37.027Z,5.90
2019-01-14T04:28:37.018Z,5.80
2019-01-14T04:29:37.004Z,5.40
2019-01-14T04:30:36.993Z,4.60
2019-01-14T04:31:36.981Z,5.10
2019-01-14T04:32:36.992Z,5.40
2019-01-14T04:33:36.963Z,5.30
2019-01-14T04:34:36.952Z,4.80
2019-01-14T04:35:36.937Z,4.60
2019-01-14T04:36:36.929Z,5.10
2019-01-14T04:37:36.937Z,4.80
2019-01-14T04:38:36.905Z,5.00
2019-01-14T04:39:36.897Z,5.00
2019-01-14T04:40:36.886Z,4.30
2019-01-14T04:41:36.872Z,5.00
2019-01-14T04:42:36.935Z,3.90
2019-01-14T04:43:36.852Z,4.50
2019-01-14T04:44:36.840Z,4.20
2019-01-14T04:45:36.831Z,4.30
2019-01-14T04:46:36.818Z,4.20
2019-01-14T04:47:37.206Z,3.90
2019-01-14T04:48:36.797Z,3.40
2019-01-14T04:49:36.785Z,3.80
2019-01-14T04:50:36.779Z,3.60
2019-01-14T04:51:36.762Z,3.60
2019-01-14T04:52:36.779Z,3.00
2019-01-14T04:53:36.755Z,3.10
2019-01-14T04:54:36.730Z,3.50
2019-01-14T04:55:36.724Z,3.40
2019-01-14T04:56:36.710Z,3.10
2019-01-14T04:57:36.698Z,3.10
2019-01-14T04:58:36.707Z,3.40
2019-01-14T04:59:36.677Z,3.00
2019-01-14T05:00:36.666Z,2.90
2019-01-14T05:01:36.654Z,3.00
2019-01-14T05:02:36.645Z,2.80
2019-01-14T05:03:36.657Z,3.00
2019-01-14T05:04:36.621Z,3.30
2019-01-14T05:05:36.611Z,3.30
2019-01-14T05:06:36.600Z,3.10
2019-01-14T05:07:36.588Z,3.00
2019-01-14T05:08:36.577Z,3.60
2019-01-14T05:09:36.585Z,2.90
2019-01-14T05:10:36.557Z,3.20
2019-01-14T05:11:36.547Z,3.00
2019-01-14T05:12:36.534Z,3.20
2019-01-14T05:13:36.526Z,3.60
2019-01-14T05:14:36.536Z,3.00
2019-01-14T05:15:37.080Z,3.70
2019-01-14T05:16:36.491Z,3.40
2019-01-14T05:17:36.477Z,4.30
2019-01-14T05:18:36.469Z,3.60
2019-01-14T05:19:36.478Z,4.10
2019-01-14T05:20:36.446Z,3.20
2019-01-14T05:21:36.435Z,4.00
2019-01-14T05:22:36.423Z,3.30
2019-01-14T05:23:36.413Z,3.00
2019-01-14T05:24:37.218Z,3.60
2019-01-14T05:25:36.390Z,3.50
2019-01-14T05:26:36.383Z,3.40
2019-01-14T05:27:36.371Z,3.40
2019-01-14T05:28:36.358Z,3.30
2019-01-14T05:29:36.370Z,3.40
2019-01-14T05:30:36.337Z,3.50
2019-01-14T05:31:36.328Z,3.70
2019-01-14T05:32:36.313Z,3.50
2019-01-14T05:33:36.305Z,3.80
2019-01-14T05:34:37.213Z,2.80
2019-01-14T05:35:36.284Z,4.10
2019-01-14T05:36:36.276Z,3.20
2019-01-14T05:37:37.792Z,3.30
2019-01-14T05:38:36.251Z,2.90
2019-01-14T05:39:36.260Z,3.10
2019-01-14T05:40:36.229Z,3.30
2019-01-14T05:41:36.216Z,2.70
2019-01-14T05:42:36.206Z,3.00
2019-01-14T05:43:36.401Z,2.60
2019-01-14T05:44:37.720Z,3.00
2019-01-14T05:45:36.174Z,2.50
2019-01-14T05:46:36.161Z,3.30
2019-01-14T05:47:36.151Z,2.80
2019-01-14T05:48:36.140Z,3.50
